Time;durP1;ratioP1;P1;durP2;ratioP2;P2;SDS_P1;SDS_P2;PMS_P1;PMS_P2;Temp;Humidity;BMP_temperature;BMP_pressure;BME280_temperature;BME280_humidity;BME280_pressure;Samples;Min_cycle;Max_cycle;Signal;HPM_P1;HPM_P2
2023/09/06 00:00:43;;;;;;;;;;;;;;;25.88;44.04;101709.16;5034877;28;19921;-57
2023/09/06 00:03:14;;;;;;;;;;;;;;;25.88;44.07;101706.44;5035047;28;20406;-57
2023/09/06 00:05:41;;;;;;;;;;;;;;;25.89;44.17;101707.31;5035081;28;19928;-57
2023/09/06 00:08:12;;;;;;;;;;;;;;;25.89;44.04;101701.88;5034867;28;20371;-57
2023/09/06 00:10:40;;;;;;;;;;;;;;;25.89;44.04;101691.88;5035377;28;19986;-57
2023/09/06 00:13:07;;;;;;;;;;;;;;;25.90;43.90;101700.88;5035203;28;19921;-58
2023/09/06 00:15:35;;;;;;;;;;;;;;;25.88;43.98;101703.72;5044284;28;19921;-58
2023/09/06 00:18:05;;;;;;;;;;;;;;;25.89;44.16;101696.47;5035489;28;19928;-59
2023/09/06 00:20:36;;;;;;;;;;;;;;;25.89;43.96;101694.59;5034679;28;20286;-60
2023/09/06 00:23:04;;;;;;;;;;;;;;;25.89;44.18;101694.59;5034928;28;20395;-60
2023/09/06 00:25:32;;;;;;;;;;;;;;;25.90;44.12;101690.03;5034927;28;20378;-60
2023/09/06 00:28:00;;;;;;;;;;;;;;;25.89;44.06;101689.19;5033459;28;19921;-59
2023/09/06 00:30:28;;;;;;;;;;;;;;;25.90;44.00;101698.16;5038566;28;19928;-60
2023/09/06 00:32:55;;;;;;;;;;;;;;;25.90;43.92;101698.16;5034776;28;19921;-60
2023/09/06 00:35:25;;;;;;;;;;;;;;;25.91;44.07;101701.72;5033083;28;19920;-59
2023/09/06 00:37:53;;;;;;;;;;;;;;;25.91;44.03;101701.72;5034333;28;19921;-58
2023/09/06 00:40:23;;;;;;;;;;;;;;;25.91;44.07;101694.44;5044943;28;19921;-59
2023/09/06 00:42:50;;;;;;;;;;;;;;;25.91;44.15;101689.00;5033350;28;20399;-59
2023/09/06 00:45:21;;;;;;;;;;;;;;;25.91;44.16;101694.44;5033050;28;20030;-59
2023/09/06 00:47:50;;;;;;;;;;;;;;;25.91;44.00;101699.88;5034195;28;20287;-58
2023/09/06 00:50:18;;;;;;;;;;;;;;;25.91;44.06;101694.44;5032721;28;20306;-57
2023/09/06 00:52:47;;;;;;;;;;;;;;;25.92;44.06;101687.16;5032942;28;19921;-57
2023/09/06 00:55:14;;;;;;;;;;;;;;;25.91;44.02;101689.00;5032678;28;19925;-57
2023/09/06 00:57:42;;;;;;;;;;;;;;;25.92;44.08;101684.44;5034222;28;19921;-58
2023/09/06 01:00:17;;;;;;;;;;;;;;;25.92;44.25;101685.28;5034414;28;19921;-58
2023/09/06 01:02:46;;;;;;;;;;;;;;;25.92;44.00;101687.16;5033067;28;19932;-57
2023/09/06 01:05:15;;;;;;;;;;;;;;;25.92;44.07;101687.16;5034099;28;20321;-57
2023/09/06 01:07:47;;;;;;;;;;;;;;;25.94;44.04;101690.56;5033726;28;19935;-58
2023/09/06 01:10:16;;;;;;;;;;;;;;;25.91;43.88;101678.16;5036515;28;19948;-57
2023/09/06 01:12:43;;;;;;;;;;;;;;;25.92;43.99;101690.72;5033246;28;19928;-57
2023/09/06 01:15:11;;;;;;;;;;;;;;;25.92;43.98;101692.56;5032560;28;19921;-57
2023/09/06 01:17:41;;;;;;;;;;;;;;;25.91;43.89;101683.59;5034379;28;19921;-58
2023/09/06 01:20:18;;;;;;;;;;;;;;;25.92;43.93;101682.56;5033864;28;19944;-57
2023/09/06 01:22:53;;;;;;;;;;;;;;;25.92;43.86;101687.16;5034033;28;19925;-57
2023/09/06 01:25:21;;;;;;;;;;;;;;;25.92;43.81;101688.00;5033947;28;19921;-57
2023/09/06 01:27:48;;;;;;;;;;;;;;;25.91;44.07;101686.28;5032443;28;19928;-58
2023/09/06 01:30:15;;;;;;;;;;;;;;;25.92;44.04;101684.44;5041499;28;19921;-57
2023/09/06 01:32:42;;;;;;;;;;;;;;;25.92;43.89;101676.28;5032669;28;19921;-57
2023/09/06 01:35:10;;;;;;;;;;;;;;;25.92;43.97;101682.56;5032433;28;20303;-57
2023/09/06 01:37:37;;;;;;;;;;;;;;;25.92;43.89;101677.16;5032336;28;20291;-58
2023/09/06 01:40:14;;;;;;;;;;;;;;;25.93;44.01;101681.59;5033989;28;19932;-59
2023/09/06 01:42:42;;;;;;;;;;;;;;;25.92;43.88;101671.72;5032043;28;19928;-60
2023/09/06 01:45:09;;;;;;;;;;;;;;;25.92;43.97;101662.72;5034011;28;20363;-60
2023/09/06 01:47:36;;;;;;;;;;;;;;;25.92;44.05;101671.72;5033572;28;20319;-60
2023/09/06 01:50:04;;;;;;;;;;;;;;;25.93;43.90;101668.03;5033780;28;19921;-57
2023/09/06 01:52:31;;;;;;;;;;;;;;;25.93;43.92;101676.16;5033951;28;19928;-57
2023/09/06 01:54:58;;;;;;;;;;;;;;;25.92;44.08;101681.72;5033760;28;19929;-57
2023/09/06 01:57:26;;;;;;;;;;;;;;;25.92;44.02;101671.72;5036103;28;19921;-57
2023/09/06 01:59:53;;;;;;;;;;;;;;;25.93;43.96;101676.16;5032551;28;20297;-57
2023/09/06 02:02:20;;;;;;;;;;;;;;;25.92;43.95;101668.16;5032323;28;19944;-57
2023/09/06 02:04:47;;;;;;;;;;;;;;;25.92;43.98;101662.72;5031961;28;19929;-57
2023/09/06 02:07:14;;;;;;;;;;;;;;;25.93;44.00;101673.44;5036222;28;19928;-57
2023/09/06 02:09:42;;;;;;;;;;;;;;;25.91;44.07;101659.16;5033460;28;19921;-57
2023/09/06 02:12:14;;;;;;;;;;;;;;;25.92;43.91;101666.28;5032449;28;19928;-58
2023/09/06 02:14:41;;;;;;;;;;;;;;;25.92;43.93;101660.88;5035382;28;19920;-57
2023/09/06 02:17:08;;;;;;;;;;;;;;;25.92;43.78;101665.44;5033543;28;19921;-58
2023/09/06 02:19:35;;;;;;;;;;;;;;;25.92;43.98;101671.72;5032318;28;19932;-59
2023/09/06 02:22:03;;;;;;;;;;;;;;;25.94;43.96;101667.00;5035328;28;19928;-59
2023/09/06 02:24:30;;;;;;;;;;;;;;;25.92;43.97;101668.16;5039363;28;19921;-59
2023/09/06 02:26:58;;;;;;;;;;;;;;;25.92;43.89;101660.88;5036976;28;19921;-59
2023/09/06 02:29:28;;;;;;;;;;;;;;;25.92;43.89;101660.88;5036523;28;19928;-59
2023/09/06 02:31:55;;;;;;;;;;;;;;;25.92;43.77;101660.88;5037033;28;20294;-59
2023/09/06 02:34:22;;;;;;;;;;;;;;;25.91;43.73;101653.75;5040722;28;19921;-59
2023/09/06 02:36:51;;;;;;;;;;;;;;;25.91;43.89;101661.88;5036450;28;19921;-60
2023/09/06 02:39:18;;;;;;;;;;;;;;;25.92;43.72;101660.00;5036974;28;20300;-58
2023/09/06 02:41:46;;;;;;;;;;;;;;;25.91;43.69;101655.59;5036165;28;19925;-57
2023/09/06 02:44:13;;;;;;;;;;;;;;;25.91;43.72;101653.75;5036992;28;19928;-58
2023/09/06 02:46:41;;;;;;;;;;;;;;;25.91;43.55;101661.88;5035860;28;20379;-57
2023/09/06 02:49:11;;;;;;;;;;;;;;;25.92;43.52;101658.16;5036977;28;19921;-58
2023/09/06 02:51:38;;;;;;;;;;;;;;;25.92;43.43;101654.59;5036353;28;19921;-57
2023/09/06 02:54:06;;;;;;;;;;;;;;;25.91;43.65;101650.19;5036302;28;19924;-57
2023/09/06 02:56:34;;;;;;;;;;;;;;;25.92;43.63;101647.31;5036696;28;19928;-57
2023/09/06 02:59:02;;;;;;;;;;;;;;;25.92;43.69;101650.00;5036505;28;19928;-59
2023/09/06 03:01:30;;;;;;;;;;;;;;;25.91;43.74;101644.75;5037106;28;19928;-59
2023/09/06 03:03:58;;;;;;;;;;;;;;;25.91;43.81;101648.31;5036776;28;19921;-60
2023/09/06 03:06:33;;;;;;;;;;;;;;;25.91;43.75;101647.47;5035271;28;19932;-60
2023/09/06 03:09:08;;;;;;;;;;;;;;;25.91;43.83;101651.03;5045921;28;19992;-59
2023/09/06 03:11:36;;;;;;;;;;;;;;;25.91;43.76;101652.91;5036475;28;20386;-60
2023/09/06 03:14:04;;;;;;;;;;;;;;;25.89;43.89;101645.78;5034735;28;19921;-59
2023/09/06 03:16:38;;;;;;;;;;;;;;;25.91;43.83;101651.03;5036234;28;19921;-60
2023/09/06 03:19:10;;;;;;;;;;;;;;;25.91;43.80;101644.75;5034810;28;20376;-59
2023/09/06 03:21:38;;;;;;;;;;;;;;;25.91;43.98;101658.31;5046699;28;19921;-59
2023/09/06 03:24:11;;;;;;;;;;;;;;;25.90;44.01;101649.34;5036084;28;19928;-59
2023/09/06 03:26:43;;;;;;;;;;;;;;;25.90;43.94;101649.34;5036167;28;19921;-60
2023/09/06 03:29:15;;;;;;;;;;;;;;;25.91;43.84;101650.19;5034481;28;20311;-58
2023/09/06 03:31:42;;;;;;;;;;;;;;;25.90;44.01;101649.34;5036196;28;19933;-58
2023/09/06 03:34:15;;;;;;;;;;;;;;;25.91;43.95;101656.47;5034167;28;19928;-58
2023/09/06 03:36:51;;;;;;;;;;;;;;;25.90;43.99;101652.03;5034287;28;19928;-58
2023/09/06 03:39:21;;;;;;;;;;;;;;;25.90;43.76;101641.19;5046762;28;20417;-59
2023/09/06 03:41:48;;;;;;;;;;;;;;;25.90;43.74;101641.19;5035597;28;19921;-60
2023/09/06 03:44:16;;;;;;;;;;;;;;;25.90;43.92;101638.47;5033811;28;19921;-59
2023/09/06 03:46:43;;;;;;;;;;;;;;;25.90;43.85;101641.19;5034689;28;19927;-59
2023/09/06 03:49:13;;;;;;;;;;;;;;;25.90;43.78;101646.63;5036057;28;19921;-58
2023/09/06 03:51:40;;;;;;;;;;;;;;;25.89;43.66;101643.06;5035661;28;19921;-58
2023/09/06 03:54:09;;;;;;;;;;;;;;;25.89;43.70;101647.63;5035779;28;20264;-58
2023/09/06 03:56:38;;;;;;;;;;;;;;;25.89;43.60;101643.06;5034440;28;19925;-58
2023/09/06 03:59:08;;;;;;;;;;;;;;;25.89;43.76;101642.22;5037946;28;19927;-58
2023/09/06 04:01:36;;;;;;;;;;;;;;;25.89;43.73;101636.78;5034482;28;19921;-58
2023/09/06 04:04:04;;;;;;;;;;;;;;;25.89;43.70;101628.66;5035476;28;19921;-58
2023/09/06 04:06:31;;;;;;;;;;;;;;;25.89;43.63;101634.06;5033201;28;19921;-58
2023/09/06 04:08:58;;;;;;;;;;;;;;;25.88;43.82;101621.50;5033985;28;19921;-58
2023/09/06 04:11:26;;;;;;;;;;;;;;;25.88;43.55;101626.91;5033278;28;19921;-58
2023/09/06 04:13:55;;;;;;;;;;;;;;;25.88;43.40;101621.50;5035211;28;19921;-58
2023/09/06 04:16:25;;;;;;;;;;;;;;;25.88;43.72;101624.19;5033515;28;19928;-58
2023/09/06 04:18:52;;;;;;;;;;;;;;;25.88;43.72;101626.91;5033580;28;19921;-59
2023/09/06 04:21:22;;;;;;;;;;;;;;;25.88;43.59;101632.34;5034673;28;20272;-59
2023/09/06 04:23:49;;;;;;;;;;;;;;;25.87;43.62;101626.06;5052991;28;19927;-59
2023/09/06 04:26:20;;;;;;;;;;;;;;;25.87;43.73;101631.50;5034930;28;19921;-59
2023/09/06 04:28:48;;;;;;;;;;;;;;;25.87;43.61;101627.94;5037690;28;19928;-58
2023/09/06 04:31:17;;;;;;;;;;;;;;;25.87;43.55;101628.78;5050142;28;19928;-63
2023/09/06 04:33:46;;;;;;;;;;;;;;;25.85;43.67;101624.53;5037373;28;19921;-63
2023/09/06 04:36:19;;;;;;;;;;;;;;;25.83;43.68;101630.09;5033486;28;19928;-64
2023/09/06 04:38:49;;;;;;;;;;;;;;;25.82;43.47;101627.56;5032746;28;19921;-60
2023/09/06 04:41:16;;;;;;;;;;;;;;;25.80;43.40;101626.84;5034689;28;20367;-60
2023/09/06 04:43:52;;;;;;;;;;;;;;;25.78;43.10;101629.72;5032386;28;19921;-60
2023/09/06 04:46:19;;;;;;;;;;;;;;;25.77;43.08;101629.84;5037515;28;20367;-60
2023/09/06 04:48:49;;;;;;;;;;;;;;;25.75;43.11;101634.56;5033028;28;19928;-61
2023/09/06 04:51:16;;;;;;;;;;;;;;;25.73;42.91;101632.03;5032969;28;19920;-60
2023/09/06 04:53:44;;;;;;;;;;;;;;;25.72;43.02;101632.16;5032987;28;19920;-61
2023/09/06 04:56:16;;;;;;;;;;;;;;;25.71;42.89;101630.47;5036656;28;19921;-60
2023/09/06 04:58:48;;;;;;;;;;;;;;;25.71;42.85;101635.88;5033120;28;20383;-63
2023/09/06 05:01:16;;;;;;;;;;;;;;;25.68;42.82;101633.47;5044347;28;19925;-64
2023/09/06 05:03:45;;;;;;;;;;;;;;;25.68;43.08;101636.19;5033189;28;19925;-64
2023/09/06 05:06:13;;;;;;;;;;;;;;;25.69;43.13;101632.50;5033815;28;19925;-63
2023/09/06 05:08:41;;;;;;;;;;;;;;;25.68;42.98;101641.63;5032829;28;19921;-61
2023/09/06 05:11:16;;;;;;;;;;;;;;;25.67;42.87;101639.91;5033370;28;19928;-60
2023/09/06 05:13:45;;;;;;;;;;;;;;;25.64;42.80;101633.81;5042660;28;19921;-60
2023/09/06 05:16:13;;;;;;;;;;;;;;;25.65;43.00;101632.78;5032257;28;19931;-60
2023/09/06 05:18:40;;;;;;;;;;;;;;;25.63;42.88;101626.66;5033823;28;19928;-60
2023/09/06 05:21:08;;;;;;;;;;;;;;;25.62;42.84;101627.66;5032596;28;20307;-60
2023/09/06 05:23:37;;;;;;;;;;;;;;;25.61;42.90;101628.69;5036544;28;19924;-61
2023/09/06 05:26:04;;;;;;;;;;;;;;;25.61;42.93;101625.13;5034075;28;19921;-61
2023/09/06 05:28:52;;;;;;;;;;;;;;;25.60;42.96;101626.09;5033732;28;20311;-63
2023/09/06 05:31:19;;;;;;;;;;;;;;;25.60;42.99;101632.41;5033480;28;19921;-63
2023/09/06 05:33:48;;;;;;;;;;;;;;;25.60;43.06;101631.53;5039572;28;19925;-64
2023/09/06 05:36:17;;;;;;;;;;;;;;;25.61;43.17;101638.69;5041928;28;19925;-64
2023/09/06 05:38:44;;;;;;;;;;;;;;;25.61;43.13;101638.69;5033733;28;19928;-63
2023/09/06 05:41:13;;;;;;;;;;;;;;;25.61;43.02;101641.41;5037494;28;19925;-64
2023/09/06 05:43:42;;;;;;;;;;;;;;;25.60;43.07;101642.38;5032663;28;19928;-64
2023/09/06 05:46:10;;;;;;;;;;;;;;;25.58;43.30;101633.56;5032337;28;19921;-63
2023/09/06 05:48:59;;;;;;;;;;;;;;;25.58;43.32;101628.13;5048723;28;19921;-60
2023/09/06 05:51:31;;;;;;;;;;;;;;;25.57;43.26;101630.00;5036381;28;19921;-60
2023/09/06 05:54:00;;;;;;;;;;;;;;;25.57;43.34;101634.56;5048803;28;19921;-60
2023/09/06 05:56:29;;;;;;;;;;;;;;;25.57;43.14;101637.28;5021275;28;19928;-60
2023/09/06 05:58:58;;;;;;;;;;;;;;;25.57;43.38;101635.44;5044275;28;19924;-60
2023/09/06 06:01:26;;;;;;;;;;;;;;;25.58;43.53;101645.25;5036288;28;19921;-60
2023/09/06 06:03:54;;;;;;;;;;;;;;;25.60;43.54;101648.69;5037870;28;19921;-60
2023/09/06 06:06:22;;;;;;;;;;;;;;;25.60;43.54;101640.53;5020239;28;19920;-60
2023/09/06 06:08:50;;;;;;;;;;;;;;;25.61;43.51;101639.53;5040229;28;19928;-63
2023/09/06 06:11:17;;;;;;;;;;;;;;;25.60;43.68;101632.41;5037149;28;19928;-64
2023/09/06 06:13:44;;;;;;;;;;;;;;;25.61;43.47;101638.69;5037172;28;19928;-64
2023/09/06 06:16:26;;;;;;;;;;;;;;;25.61;43.71;101641.41;5037075;28;20035;-63
2023/09/06 06:18:53;;;;;;;;;;;;;;;25.60;43.72;101632.41;5037009;28;19928;-64
2023/09/06 06:21:20;;;;;;;;;;;;;;;25.59;43.51;101630.69;5037233;28;19921;-64
2023/09/06 06:23:48;;;;;;;;;;;;;;;25.60;43.83;101637.84;5037529;28;19925;-63
2023/09/06 06:26:19;;;;;;;;;;;;;;;25.62;43.89;101632.25;5035924;28;19928;-63
2023/09/06 06:28:46;;;;;;;;;;;;;;;25.63;43.82;101632.06;5037761;28;19944;-63
2023/09/06 06:31:14;;;;;;;;;;;;;;;25.64;44.10;101636.53;5036926;28;19921;-64
2023/09/06 06:33:43;;;;;;;;;;;;;;;25.65;44.07;101643.63;5037186;28;19921;-63
2023/09/06 06:36:10;;;;;;;;;;;;;;;25.67;44.30;101640.75;5037014;28;19925;-64
2023/09/06 06:38:37;;;;;;;;;;;;;;;25.67;44.13;101645.34;5036652;28;20295;-63
2023/09/06 06:41:04;;;;;;;;;;;;;;;25.69;44.37;101643.34;5037060;28;19928;-62
2023/09/06 06:43:33;;;;;;;;;;;;;;;25.68;44.65;101638.91;5048621;28;20320;-62
2023/09/06 06:46:04;;;;;;;;;;;;;;;25.65;44.49;101638.22;5051022;28;19936;-67
2023/09/06 06:48:31;;;;;;;;;;;;;;;25.63;44.40;101633.94;5043346;28;20275;-62
2023/09/06 06:50:59;;;;;;;;;;;;;;;25.56;44.49;101639.16;5045894;28;20298;-62
2023/09/06 06:53:26;;;;;;;;;;;;;;;25.49;44.14;101646.19;5039687;28;19928;-63
2023/09/06 06:55:53;;;;;;;;;;;;;;;25.39;44.08;101643.50;5037013;28;19921;-60
2023/09/06 06:58:20;;;;;;;;;;;;;;;25.32;44.37;101645.16;5035959;28;19925;-64
2023/09/06 07:00:48;;;;;;;;;;;;;;;25.26;44.43;101647.59;5036169;28;19925;-64
2023/09/06 07:03:16;;;;;;;;;;;;;;;25.20;44.40;101651.78;5047376;28;19921;-59
2023/09/06 07:05:43;;;;;;;;;;;;;;;25.15;44.72;101652.22;5039987;28;19944;-60
2023/09/06 07:08:10;;;;;;;;;;;;;;;25.13;44.60;101647.97;5051335;28;19931;-67
2023/09/06 07:10:37;;;;;;;;;;;;;;;25.08;44.41;101648.38;5043263;28;19943;-67
2023/09/06 07:13:05;;;;;;;;;;;;;;;25.03;44.58;101650.66;5044103;28;19921;-66
2023/09/06 07:15:32;;;;;;;;;;;;;;;24.99;44.47;101651.97;5050875;28;19928;-66
2023/09/06 07:18:04;;;;;;;;;;;;;;;24.99;44.37;101653.81;5036430;28;19921;-66
2023/09/06 07:20:32;;;;;;;;;;;;;;;24.99;44.74;101651.13;5034818;28;19944;-66
2023/09/06 07:22:59;;;;;;;;;;;;;;;25.01;44.56;101654.53;5035421;28;19920;-67
2023/09/06 07:25:27;;;;;;;;;;;;;;;25.00;44.65;101656.41;5051333;28;19928;-65
2023/09/06 07:27:57;;;;;;;;;;;;;;;24.96;44.61;101660.41;5039604;28;19932;-60
2023/09/06 07:30:24;;;;;;;;;;;;;;;24.94;44.99;101659.69;5046854;28;19921;-60
2023/09/06 07:32:51;;;;;;;;;;;;;;;24.95;44.83;101665.97;5035337;28;19921;-59
2023/09/06 07:35:18;;;;;;;;;;;;;;;24.95;45.09;101663.25;5035545;28;19944;-61
2023/09/06 07:37:45;;;;;;;;;;;;;;;24.97;44.99;101658.56;5034696;28;19928;-63
2023/09/06 07:40:14;;;;;;;;;;;;;;;24.99;44.76;101654.69;5035325;28;20330;-68
2023/09/06 07:42:41;;;;;;;;;;;;;;;24.99;44.75;101662.81;5035090;28;19921;-68
2023/09/06 07:45:10;;;;;;;;;;;;;;;25.00;44.94;101659.13;5035009;28;19928;-68
2023/09/06 07:47:37;;;;;;;;;;;;;;;25.00;44.75;101664.53;5034956;28;20410;-67
2023/09/06 07:50:05;;;;;;;;;;;;;;;25.00;44.90;101659.13;5035072;28;20300;-62
2023/09/06 07:52:33;;;;;;;;;;;;;;;25.02;45.03;101657.09;5034604;28;19921;-63
2023/09/06 07:55:00;;;;;;;;;;;;;;;25.04;44.86;101655.09;5033955;28;19929;-62
2023/09/06 07:57:27;;;;;;;;;;;;;;;25.09;45.04;101652.81;5035102;28;19921;-63
2023/09/06 07:59:55;;;;;;;;;;;;;;;25.13;44.97;101651.53;5034809;28;19928;-63
2023/09/06 08:02:22;;;;;;;;;;;;;;;25.17;44.83;101659.34;5034630;28;19928;-63
2023/09/06 08:04:50;;;;;;;;;;;;;;;25.19;45.25;101660.03;5034672;28;19920;-63
2023/09/06 08:07:19;;;;;;;;;;;;;;;25.20;44.93;101661.75;5034649;28;19921;-62
2023/09/06 08:09:47;;;;;;;;;;;;;;;25.18;44.89;101666.47;5034534;28;19921;-63
2023/09/06 08:12:14;;;;;;;;;;;;;;;25.15;45.17;101667.63;5034357;28;20335;-62
2023/09/06 08:14:42;;;;;;;;;;;;;;;25.15;45.04;101667.63;5034703;28;19928;-62
2023/09/06 08:17:10;;;;;;;;;;;;;;;25.15;45.10;101665.75;5034479;28;19921;-60
2023/09/06 08:19:37;;;;;;;;;;;;;;;25.14;45.09;101668.63;5042190;28;19921;-68
2023/09/06 08:22:04;;;;;;;;;;;;;;;25.15;45.05;101659.50;5041898;28;19921;-68
2023/09/06 08:24:32;;;;;;;;;;;;;;;25.14;45.27;101664.06;5034521;28;19928;-69
2023/09/06 08:26:59;;;;;;;;;;;;;;;25.15;45.04;101667.63;5034180;28;19943;-68
2023/09/06 08:29:26;;;;;;;;;;;;;;;25.18;45.21;101664.63;5043013;28;19920;-62
2023/09/06 08:31:53;;;;;;;;;;;;;;;25.22;45.38;101668.72;5041401;28;19921;-62
2023/09/06 08:34:21;;;;;;;;;;;;;;;25.24;45.37;101665.84;5049923;28;19924;-73
2023/09/06 08:36:48;;;;;;;;;;;;;;;25.25;45.49;101665.72;5038745;28;19921;-71
2023/09/06 08:39:15;;;;;;;;;;;;;;;25.26;45.91;101672.84;5034108;28;19921;-67
2023/09/06 08:41:45;;;;;;;;;;;;;;;25.28;46.04;101678.09;5034011;28;20308;-66
2023/09/06 08:44:17;;;;;;;;;;;;;;;25.26;45.95;101680.13;5034008;28;19921;-67
2023/09/06 08:46:45;;;;;;;;;;;;;;;25.24;46.13;101685.72;5033771;28;19921;-67
2023/09/06 08:49:13;;;;;;;;;;;;;;;25.25;46.17;101681.13;5033640;28;20327;-67
2023/09/06 08:51:42;;;;;;;;;;;;;;;25.25;46.59;101678.44;5033630;28;20322;-72
2023/09/06 08:54:09;;;;;;;;;;;;;;;25.24;46.93;101676.69;5033645;28;19921;-68
2023/09/06 08:56:37;;;;;;;;;;;;;;;25.23;47.10;101675.84;5034548;28;19921;-71
2023/09/06 08:59:05;;;;;;;;;;;;;;;25.24;47.09;101676.69;5033668;28;19936;-73
2023/09/06 09:01:37;;;;;;;;;;;;;;;25.24;47.60;101676.69;5032881;28;19921;-67
2023/09/06 09:04:05;;;;;;;;;;;;;;;25.24;47.50;101679.41;5049550;28;19920;-69
2023/09/06 09:06:32;;;;;;;;;;;;;;;25.24;47.38;101676.69;5039525;28;19921;-67
2023/09/06 09:09:19;;;;;;;;;;;;;;;25.23;47.59;101672.28;5043169;28;19924;-62
2023/09/06 09:11:50;;;;;;;;;;;;;;;25.21;47.46;101677.03;5034260;28;19921;-65
2023/09/06 09:14:25;;;;;;;;;;;;;;;25.21;47.56;101685.16;5048199;28;20307;-67
2023/09/06 09:16:56;;;;;;;;;;;;;;;25.19;47.72;101682.56;5037958;28;20286;-67
2023/09/06 09:19:23;;;;;;;;;;;;;;;25.18;47.66;101680.88;5033570;28;19925;-65
2023/09/06 09:21:51;;;;;;;;;;;;;;;25.17;47.81;101681.88;5033798;28;19928;-67
2023/09/06 09:24:28;;;;;;;;;;;;;;;25.19;47.78;101679.84;5033484;28;19928;-67
2023/09/06 09:26:59;;;;;;;;;;;;;;;25.22;48.14;101678.72;5033427;28;19928;-66
2023/09/06 09:29:27;;;;;;;;;;;;;;;25.24;47.87;101676.69;5033579;28;19921;-67
2023/09/06 09:31:59;;;;;;;;;;;;;;;25.27;48.19;101684.53;5033089;28;19924;-66
2023/09/06 09:34:28;;;;;;;;;;;;;;;25.27;48.28;101681.81;5033317;28;20295;-66
2023/09/06 09:36:55;;;;;;;;;;;;;;;25.28;48.48;101678.09;5032759;28;19932;-66
2023/09/06 09:39:26;;;;;;;;;;;;;;;25.27;48.47;101671.84;5033820;28;19924;-67
2023/09/06 09:41:57;;;;;;;;;;;;;;;25.28;48.54;101678.09;5031628;28;20401;-66
2023/09/06 09:44:26;;;;;;;;;;;;;;;25.30;48.69;101670.69;5032910;28;19925;-66
2023/09/06 09:46:55;;;;;;;;;;;;;;;25.33;48.38;101670.41;5033078;28;20307;-67
2023/09/06 09:49:24;;;;;;;;;;;;;;;25.37;48.37;101679.94;5039589;28;19921;-66
2023/09/06 09:51:52;;;;;;;;;;;;;;;25.39;48.23;101676.03;5034191;28;19928;-66
2023/09/06 09:54:21;;;;;;;;;;;;;;;25.40;48.25;101674.19;5038522;28;19921;-66
2023/09/06 09:56:56;;;;;;;;;;;;;;;25.38;48.49;101674.34;5031687;28;19928;-66
2023/09/06 09:59:25;;;;;;;;;;;;;;;25.37;48.49;101679.94;5032789;28;19920;-66
2023/09/06 10:01:53;;;;;;;;;;;;;;;25.37;48.36;101677.22;5037869;28;19932;-66
2023/09/06 10:04:21;;;;;;;;;;;;;;;25.36;48.47;101680.91;5044558;28;19928;-66
2023/09/06 10:06:48;;;;;;;;;;;;;;;25.37;48.56;101671.78;5036556;28;20371;-66
2023/09/06 10:09:16;;;;;;;;;;;;;;;25.38;48.40;101668.06;5032849;28;19921;-62
2023/09/06 10:11:44;;;;;;;;;;;;;;;25.43;48.34;101664.91;5032984;28;19921;-61
2023/09/06 10:14:12;;;;;;;;;;;;;;;25.44;48.14;101653.91;5031496;28;19921;-61
2023/09/06 10:16:40;;;;;;;;;;;;;;;25.47;48.13;101648.19;5032756;28;20273;-62
2023/09/06 10:19:08;;;;;;;;;;;;;;;25.49;48.11;101639.91;5033264;28;19921;-62
2023/09/06 10:21:35;;;;;;;;;;;;;;;25.51;48.30;101641.44;5032573;28;19928;-61
2023/09/06 10:24:03;;;;;;;;;;;;;;;25.52;48.28;101639.59;5032689;28;19932;-61
2023/09/06 10:26:34;;;;;;;;;;;;;;;25.54;48.54;101643.00;5032427;28;20276;-62
2023/09/06 10:29:01;;;;;;;;;;;;;;;25.53;48.82;101642.16;5033098;28;19921;-65
2023/09/06 10:31:35;;;;;;;;;;;;;;;25.56;48.78;101635.56;5032686;28;19936;-66
2023/09/06 10:34:02;;;;;;;;;;;;;;;25.56;48.89;101633.72;5032605;28;20383;-67
2023/09/06 10:36:47;;;;;;;;;;;;;;;25.56;48.22;101633.72;5032650;28;19988;-66
2023/09/06 10:39:16;;;;;;;;;;;;;;;25.56;48.32;101633.72;5038935;28;19921;-67
2023/09/06 10:42:02;;;;;;;;;;;;;;;25.56;48.24;101630.13;5040129;28;19944;-66
2023/09/06 10:44:29;;;;;;;;;;;;;;;25.58;48.01;101636.28;5052008;28;20302;-66
2023/09/06 10:47:16;;;;;;;;;;;;;;;25.58;48.14;101620.00;5043010;28;19920;-67
2023/09/06 10:50:03;;;;;;;;;;;;;;;25.60;48.26;101627.00;5042864;28;19921;-66
2023/09/06 10:52:44;;;;;;;;;;;;;;;25.63;48.37;101625.81;5051815;28;20307;-67
2023/09/06 10:55:13;;;;;;;;;;;;;;;25.65;48.08;101621.09;5040715;28;19921;-66
2023/09/06 10:57:47;;;;;;;;;;;;;;;25.67;47.76;101619.06;5040105;28;20379;-66
2023/09/06 11:00:19;;;;;;;;;;;;;;;25.68;47.63;101606.34;5049214;28;20291;-66
2023/09/06 11:03:04;;;;;;;;;;;;;;;25.71;47.41;101608.75;5048348;28;19935;-66
2023/09/06 11:05:35;;;;;;;;;;;;;;;25.71;46.85;101609.63;5036033;28;19924;-59
2023/09/06 11:08:02;;;;;;;;;;;;;;;25.71;46.70;101608.75;5035571;28;20303;-61
2023/09/06 11:10:32;;;;;;;;;;;;;;;25.72;46.56;101613.19;5035875;28;20295;-61
2023/09/06 11:13:10;;;;;;;;;;;;;;;25.71;46.28;101609.63;5035499;28;19921;-58
2023/09/06 11:15:38;;;;;;;;;;;;;;;25.70;46.31;101602.50;5035472;28;19921;-59
2023/09/06 11:18:05;;;;;;;;;;;;;;;25.71;45.99;101592.50;5035941;28;19921;-57
2023/09/06 11:20:33;;;;;;;;;;;;;;;25.71;45.62;101592.50;5035260;28;20330;-56
2023/09/06 11:23:01;;;;;;;;;;;;;;;25.70;45.76;101588.94;5035372;28;19921;-56
2023/09/06 11:25:29;;;;;;;;;;;;;;;25.71;45.79;101590.63;5035681;28;19921;-58
2023/09/06 11:27:59;;;;;;;;;;;;;;;25.71;45.44;101585.22;5051222;28;19921;-58
2023/09/06 11:30:31;;;;;;;;;;;;;;;25.76;44.94;101579.31;5035029;28;20378;-58
2023/09/06 11:32:58;;;;;;;;;;;;;;;25.77;45.01;101586.47;5035762;28;19921;-58
2023/09/06 11:35:27;;;;;;;;;;;;;;;25.77;45.24;101575.63;5035002;28;19921;-59
2023/09/06 11:37:55;;;;;;;;;;;;;;;25.78;44.82;101566.50;5034973;28;19925;-58
2023/09/06 11:40:27;;;;;;;;;;;;;;;25.77;44.66;101565.66;5035297;28;19948;-58
2023/09/06 11:42:58;;;;;;;;;;;;;;;25.79;44.45;101562.75;5034973;28;19921;-59
2023/09/06 11:45:26;;;;;;;;;;;;;;;25.79;44.38;101563.63;5034827;28;19921;-58
2023/09/06 11:47:56;;;;;;;;;;;;;;;25.80;44.42;101559.88;5035520;28;19921;-57
2023/09/06 11:50:23;;;;;;;;;;;;;;;25.81;44.61;101553.47;5034945;28;19921;-56
2023/09/06 11:52:53;;;;;;;;;;;;;;;25.82;44.47;101555.16;5035078;28;19921;-56
2023/09/06 11:55:26;;;;;;;;;;;;;;;25.83;44.45;101548.72;5033686;28;20379;-58
2023/09/06 11:57:57;;;;;;;;;;;;;;;25.85;44.37;101551.31;5034713;28;20344;-57
2023/09/06 12:00:38;;;;;;;;;;;;;;;25.86;44.44;101542.16;5034629;28;19928;-58
2023/09/06 12:03:09;;;;;;;;;;;;;;;25.86;44.05;101543.00;5036391;28;19920;-57
2023/09/06 12:05:38;;;;;;;;;;;;;;;25.89;44.10;101536.41;5048410;28;19928;-56
2023/09/06 12:08:21;;;;;;;;;;;;;;;25.92;43.90;101532.50;5046549;28;19920;-57
2023/09/06 12:10:53;;;;;;;;;;;;;;;25.95;44.36;101530.34;5038353;28;19929;-56
2023/09/06 12:13:27;;;;;;;;;;;;;;;25.96;44.19;101531.19;5048283;28;20398;-55
2023/09/06 12:15:58;;;;;;;;;;;;;;;25.98;44.30;101523.75;5044314;28;19924;-58
2023/09/06 12:18:27;;;;;;;;;;;;;;;25.98;44.43;101505.59;5041017;28;19928;-55
2023/09/06 12:20:56;;;;;;;;;;;;;;;26.00;44.32;101508.16;5034892;28;20244;-56
2023/09/06 12:23:28;;;;;;;;;;;;;;;26.00;44.30;101508.16;5034321;28;19921;-57
2023/09/06 12:25:57;;;;;;;;;;;;;;;26.01;44.42;101507.13;5034741;28;19928;-57
2023/09/06 12:28:25;;;;;;;;;;;;;;;26.00;44.38;101506.28;5033612;28;19928;-56
2023/09/06 12:30:55;;;;;;;;;;;;;;;26.00;44.15;101506.28;5033920;28;19921;-57
2023/09/06 12:33:22;;;;;;;;;;;;;;;26.00;44.16;101502.72;5034292;28;19920;-57
2023/09/06 12:35:58;;;;;;;;;;;;;;;26.00;44.04;101495.44;5033687;28;19928;-57
2023/09/06 12:38:30;;;;;;;;;;;;;;;26.00;43.94;101490.00;5041032;28;19921;-58
2023/09/06 12:40:58;;;;;;;;;;;;;;;26.01;43.80;101491.72;5034145;28;19925;-57
2023/09/06 12:43:26;;;;;;;;;;;;;;;26.01;43.83;101488.13;5039135;28;19921;-56
2023/09/06 12:45:54;;;;;;;;;;;;;;;26.02;43.57;101484.44;5039076;28;20383;-56